Time;durP1;ratioP1;P1;durP2;ratioP2;P2;SDS_P1;SDS_P2;PMS_P1;PMS_P2;Temp;Humidity;BMP_temperature;BMP_pressure;BME280_temperature;BME280_humidity;BME280_pressure;Samples;Min_cycle;Max_cycle;Signal;HPM_P1;HPM_P2
2023/07/10 00:00:20;;;;;;;12.03;6.27;;;19.70;99.90;;;;;;5020807;28;20200;-56
2023/07/10 00:02:49;;;;;;;10.37;6.17;;;19.70;99.90;;;;;;4996639;28;20196;-56
2023/07/10 00:05:16;;;;;;;8.10;6.37;;;19.60;99.90;;;;;;5022956;28;20657;-56
2023/07/10 00:07:44;;;;;;;10.10;6.53;;;19.50;99.90;;;;;;5006135;28;20204;-54
2023/07/10 00:10:12;;;;;;;10.00;6.23;;;19.50;99.90;;;;;;5023031;28;20258;-54
2023/07/10 00:12:41;;;;;;;9.70;5.93;;;19.50;99.90;;;;;;5022113;28;20234;-52
2023/07/10 00:15:18;;;;;;;9.93;6.70;;;19.50;99.90;;;;;;5022162;28;20204;-51
2023/07/10 00:17:45;;;;;;;8.30;6.03;;;19.50;99.90;;;;;;5004523;28;20713;-54
2023/07/10 00:20:15;;;;;;;15.37;7.27;;;19.50;99.90;;;;;;5006588;28;20204;-53
2023/07/10 00:22:42;;;;;;;11.23;6.60;;;19.40;99.90;;;;;;5012992;28;20196;-55
2023/07/10 00:25:10;;;;;;;11.20;6.23;;;19.40;99.90;;;;;;5021812;28;20223;-51
2023/07/10 00:27:38;;;;;;;11.23;6.50;;;19.40;99.90;;;;;;5022276;28;20248;-53
2023/07/10 00:30:15;;;;;;;11.67;6.63;;;19.40;99.90;;;;;;5014894;28;20265;-56
2023/07/10 00:32:42;;;;;;;8.07;5.90;;;19.40;99.90;;;;;;5004280;28;20617;-53
2023/07/10 00:35:17;;;;;;;14.73;6.63;;;19.40;99.90;;;;;;5015338;28;20215;-54
2023/07/10 00:37:47;;;;;;;10.13;7.23;;;19.40;99.90;;;;;;5016637;28;20290;-55
2023/07/10 00:40:20;;;;;;;8.67;6.50;;;19.40;99.90;;;;;;5022224;28;20286;-54
2023/07/10 00:42:48;;;;;;;11.77;6.70;;;19.40;99.90;;;;;;5015264;28;20196;-55
2023/07/10 00:45:16;;;;;;;9.07;7.20;;;19.40;99.90;;;;;;5019274;28;20318;-54
2023/07/10 00:47:50;;;;;;;9.70;6.70;;;19.40;99.90;;;;;;5006626;28;20200;-50
2023/07/10 00:50:22;;;;;;;12.40;6.77;;;19.40;99.90;;;;;;5021373;28;20207;-52
2023/07/10 00:52:51;;;;;;;10.70;6.10;;;19.40;99.90;;;;;;5018318;28;20196;-55
2023/07/10 00:55:23;;;;;;;8.00;6.03;;;19.40;99.90;;;;;;5008039;28;20262;-51
2023/07/10 00:57:56;;;;;;;13.13;6.70;;;19.40;99.90;;;;;;5019100;28;20192;-53
2023/07/10 01:00:26;;;;;;;8.93;6.17;;;19.40;99.90;;;;;;5022603;28;20605;-51
2023/07/10 01:02:53;;;;;;;10.37;7.13;;;19.40;99.90;;;;;;5016990;28;20242;-51
2023/07/10 01:05:21;;;;;;;7.13;5.83;;;19.30;99.90;;;;;;4999439;28;20636;-54
2023/07/10 01:07:53;;;;;;;10.90;7.23;;;19.30;99.90;;;;;;5012069;28;20212;-54
2023/07/10 01:10:20;;;;;;;13.20;6.43;;;19.30;99.90;;;;;;5014380;28;20215;-56
2023/07/10 01:12:47;;;;;;;11.33;6.07;;;19.30;99.90;;;;;;5018380;28;20238;-55
2023/07/10 01:15:16;;;;;;;10.57;6.13;;;19.30;99.90;;;;;;5022658;28;20239;-55
2023/07/10 01:17:46;;;;;;;10.83;6.20;;;19.40;99.90;;;;;;5018704;28;20200;-53
2023/07/10 01:20:35;;;;;;;9.07;6.73;;;19.40;99.90;;;;;;4994164;28;20211;-52
2023/07/10 01:23:04;;;;;;;9.73;5.67;;;19.40;99.90;;;;;;5014243;28;20711;-52
2023/07/10 01:25:36;;;;;;;10.80;6.37;;;19.40;99.90;;;;;;5022671;28;20228;-53
2023/07/10 01:28:09;;;;;;;6.57;5.63;;;19.40;99.90;;;;;;5024224;28;20200;-51
2023/07/10 01:30:38;;;;;;;10.87;6.47;;;19.40;99.90;;;;;;5017208;28;20613;-54
2023/07/10 01:33:10;;;;;;;8.77;5.83;;;19.40;99.90;;;;;;5019854;28;20196;-56
2023/07/10 01:35:38;;;;;;;11.60;6.23;;;19.40;99.90;;;;;;5000895;28;20607;-54
2023/07/10 01:38:06;;;;;;;9.63;7.03;;;19.40;99.90;;;;;;5017190;28;20180;-55
2023/07/10 01:40:38;;;;;;;9.93;5.87;;;19.40;99.90;;;;;;5021952;28;20203;-56
2023/07/10 01:43:05;;;;;;;10.20;5.70;;;19.50;99.90;;;;;;5010137;28;20304;-54
2023/07/10 01:45:42;;;;;;;9.20;5.63;;;19.50;99.90;;;;;;5022632;28;20216;-54
2023/07/10 01:48:09;;;;;;;6.73;5.17;;;19.50;99.90;;;;;;5018381;28;20979;-53
2023/07/10 01:50:36;;;;;;;9.07;5.20;;;19.50;99.90;;;;;;4997212;28;20295;-53
2023/07/10 01:53:03;;;;;;;6.03;5.43;;;19.50;99.90;;;;;;5019316;28;20192;-55
2023/07/10 01:55:38;;;;;;;7.53;5.70;;;19.50;99.90;;;;;;5006159;28;20567;-54
2023/07/10 01:58:05;;;;;;;10.33;5.93;;;19.60;99.90;;;;;;5019595;28;20794;-53
2023/07/10 02:00:32;;;;;;;10.90;6.10;;;19.60;99.90;;;;;;5024042;28;20200;-54
2023/07/10 02:02:58;;;;;;;8.27;5.60;;;19.60;99.90;;;;;;5022696;28;20188;-53
2023/07/10 02:05:25;;;;;;;8.83;5.53;;;19.60;99.90;;;;;;5022170;28;20239;-52
2023/07/10 02:07:52;;;;;;;11.03;6.07;;;19.60;99.90;;;;;;4996135;28;20207;-52
2023/07/10 02:10:19;;;;;;;8.53;5.43;;;19.60;99.90;;;;;;5026123;28;20204;-48
2023/07/10 02:12:47;;;;;;;8.67;5.70;;;19.60;99.90;;;;;;5014182;28;20674;-52
2023/07/10 02:15:14;;;;;;;8.03;5.47;;;19.60;99.90;;;;;;5025692;28;20220;-55
2023/07/10 02:17:41;;;;;;;7.83;5.30;;;19.60;99.90;;;;;;5020976;28;20215;-52
2023/07/10 02:20:08;;;;;;;9.50;5.97;;;19.60;99.90;;;;;;5021146;28;20188;-50
2023/07/10 02:22:35;;;;;;;10.20;5.90;;;19.60;99.90;;;;;;5002471;28;20207;-52
2023/07/10 02:25:02;;;;;;;6.73;5.40;;;19.60;99.90;;;;;;5022753;28;20997;-49
2023/07/10 02:27:29;;;;;;;8.43;5.63;;;19.60;99.90;;;;;;5025287;28;20192;-48
2023/07/10 02:29:57;;;;;;;6.63;5.50;;;19.60;99.90;;;;;;5010613;28;20265;-50
2023/07/10 02:32:24;;;;;;;8.87;5.43;;;19.70;99.90;;;;;;5023810;28;20544;-50
2023/07/10 02:34:50;;;;;;;9.50;5.60;;;19.70;99.90;;;;;;5021384;28;20282;-52
2023/07/10 02:37:17;;;;;;;7.47;5.10;;;19.70;99.90;;;;;;5002760;28;20262;-50
2023/07/10 02:39:44;;;;;;;6.57;5.00;;;19.60;99.90;;;;;;5021592;28;20200;-54
2023/07/10 02:42:11;;;;;;;7.03;5.50;;;19.60;99.90;;;;;;5017884;28;20616;-54
2023/07/10 02:44:38;;;;;;;7.70;5.07;;;19.70;99.90;;;;;;5015987;28;20243;-53
2023/07/10 02:47:06;;;;;;;10.03;5.90;;;19.60;99.90;;;;;;5023078;28;20227;-53
2023/07/10 02:49:33;;;;;;;7.93;5.13;;;19.60;99.90;;;;;;5018954;28;20602;-55
2023/07/10 02:52:00;;;;;;;6.13;5.10;;;19.60;99.90;;;;;;5000957;28;20282;-53
2023/07/10 02:54:27;;;;;;;6.07;5.50;;;19.60;99.90;;;;;;5019091;28;20218;-53
2023/07/10 02:56:54;;;;;;;6.80;6.07;;;19.60;99.90;;;;;;5019637;28;20211;-52
2023/07/10 02:59:26;;;;;;;10.50;5.37;;;19.60;99.90;;;;;;5015933;28;20720;-52
2023/07/10 03:01:53;;;;;;;11.53;6.03;;;19.60;99.90;;;;;;5014534;28;20856;-54
2023/07/10 03:04:21;;;;;;;9.20;5.70;;;19.60;99.90;;;;;;5021558;28;20215;-53
2023/07/10 03:06:48;;;;;;;12.63;6.23;;;19.60;99.90;;;;;;4996342;28;20298;-54
2023/07/10 03:09:15;;;;;;;7.03;6.30;;;19.60;99.90;;;;;;5022094;28;20204;-55
2023/07/10 03:11:42;;;;;;;9.70;6.13;;;19.60;99.90;;;;;;5022493;28;20196;-53
2023/07/10 03:14:09;;;;;;;12.23;6.43;;;19.60;99.90;;;;;;5023494;28;20273;-52
2023/07/10 03:16:35;;;;;;;9.03;6.23;;;19.60;99.90;;;;;;5015778;28;20204;-52
2023/07/10 03:19:02;;;;;;;10.57;6.13;;;19.60;99.90;;;;;;5016697;28;20184;-51
2023/07/10 03:21:31;;;;;;;6.93;6.30;;;19.60;99.90;;;;;;5024722;28;20238;-53
2023/07/10 03:23:58;;;;;;;9.37;5.60;;;19.60;99.90;;;;;;5000805;28;20223;-54
2023/07/10 03:26:25;;;;;;;8.73;6.37;;;19.60;99.90;;;;;;5015163;28;20212;-53
2023/07/10 03:29:03;;;;;;;11.37;6.67;;;19.60;99.90;;;;;;5018771;28;20200;-55
2023/07/10 03:31:31;;;;;;;9.07;7.17;;;19.60;99.90;;;;;;5005252;28;20211;-52
2023/07/10 03:33:58;;;;;;;8.53;7.20;;;19.60;99.90;;;;;;5024593;28;20690;-55
2023/07/10 03:36:25;;;;;;;9.67;7.33;;;19.60;99.90;;;;;;5021399;28;20188;-54
2023/07/10 03:38:53;;;;;;;15.67;7.67;;;19.50;99.90;;;;;;5002621;28;20274;-48
2023/07/10 03:41:20;;;;;;;11.40;7.07;;;19.50;99.90;;;;;;5019038;28;20281;-54
2023/07/10 03:43:48;;;;;;;13.60;7.50;;;19.50;99.90;;;;;;5019865;28;20250;-54
2023/07/10 03:46:16;;;;;;;13.53;7.23;;;19.50;99.90;;;;;;5016412;28;20222;-52
2023/07/10 03:48:43;;;;;;;12.17;8.63;;;19.50;99.90;;;;;;5021973;28;20200;-54
2023/07/10 03:51:10;;;;;;;13.47;7.57;;;19.50;99.90;;;;;;5022844;28;20250;-53
2023/07/10 03:53:37;;;;;;;9.20;7.60;;;19.50;99.90;;;;;;4995844;28;20243;-52
2023/07/10 03:56:05;;;;;;;10.63;8.30;;;19.50;99.90;;;;;;5022421;28;20192;-54
2023/07/10 03:58:34;;;;;;;8.90;7.60;;;19.50;99.90;;;;;;5014890;28;21223;-51
2023/07/10 04:01:02;;;;;;;10.40;8.17;;;19.40;99.90;;;;;;5015923;28;20258;-53
2023/07/10 04:03:31;;;;;;;10.50;8.67;;;19.50;99.90;;;;;;5011679;28;20254;-53
2023/07/10 04:05:58;;;;;;;10.77;8.33;;;19.40;99.90;;;;;;5015655;28;20224;-54
2023/07/10 04:08:28;;;;;;;10.90;9.70;;;19.40;99.90;;;;;;4991354;28;20220;-54
2023/07/10 04:10:57;;;;;;;9.87;8.87;;;19.40;99.90;;;;;;5018031;28;20287;-54
2023/07/10 04:13:26;;;;;;;10.40;9.23;;;19.40;99.90;;;;;;5011438;28;20203;-54
2023/07/10 04:16:01;;;;;;;13.87;9.80;;;19.40;99.90;;;;;;5019176;28;20188;-53
2023/07/10 04:18:29;;;;;;;10.67;8.93;;;19.40;99.90;;;;;;5003182;28;20203;-50
2023/07/10 04:20:57;;;;;;;10.93;9.83;;;19.40;99.90;;;;;;5019966;28;20275;-59
2023/07/10 04:23:24;;;;;;;12.60;9.90;;;19.50;99.90;;;;;;4993572;28;20547;-51
2023/07/10 04:25:51;;;;;;;14.23;10.37;;;19.40;99.90;;;;;;5021484;28;20273;-58
2023/07/10 04:28:18;;;;;;;13.50;10.27;;;19.40;99.90;;;;;;5019077;28;20286;-49
2023/07/10 04:30:47;;;;;;;14.70;10.83;;;19.40;99.90;;;;;;5014865;28;20196;-58
2023/07/10 04:33:14;;;;;;;15.33;10.40;;;19.40;99.90;;;;;;5014984;28;20279;-52
2023/07/10 04:35:41;;;;;;;16.43;11.97;;;19.40;99.90;;;;;;5017040;28;20188;-47
2023/07/10 04:38:08;;;;;;;15.57;12.23;;;19.40;99.90;;;;;;5020001;28;20261;-54
2023/07/10 04:40:35;;;;;;;14.83;12.63;;;19.50;99.90;;;;;;4990195;28;20203;-54
2023/07/10 04:43:04;;;;;;;15.07;13.23;;;19.50;99.90;;;;;;5017260;28;20200;-53
2023/07/10 04:45:31;;;;;;;18.00;12.17;;;19.50;99.90;;;;;;5018552;28;20848;-52
2023/07/10 04:47:59;;;;;;;16.77;13.20;;;19.50;99.90;;;;;;5020515;28;20250;-50
2023/07/10 04:50:26;;;;;;;13.33;11.93;;;19.50;99.90;;;;;;5011854;28;20270;-55
2023/07/10 04:52:52;;;;;;;13.23;11.60;;;19.60;99.90;;;;;;5015543;28;20200;-50
2023/07/10 04:55:19;;;;;;;14.90;12.33;;;19.60;99.90;;;;;;4989356;28;20756;-55
2023/07/10 04:57:46;;;;;;;14.47;12.83;;;19.60;99.90;;;;;;5019447;28;20200;-54
2023/07/10 05:00:14;;;;;;;15.07;13.57;;;19.60;99.90;;;;;;5019170;28;20232;-56
2023/07/10 05:02:40;;;;;;;15.97;13.50;;;19.70;99.90;;;;;;5017470;28;20208;-52
2023/07/10 05:05:09;;;;;;;17.03;13.43;;;19.70;99.90;;;;;;5010143;28;20315;-54
2023/07/10 05:07:36;;;;;;;16.17;13.13;;;19.70;99.90;;;;;;5012112;28;20261;-51
2023/07/10 05:10:03;;;;;;;19.23;13.80;;;19.70;99.90;;;;;;5001699;28;20290;-49
2023/07/10 05:12:30;;;;;;;18.53;15.27;;;19.70;99.90;;;;;;5018396;28;20893;-52
2023/07/10 05:14:57;;;;;;;18.23;15.00;;;19.70;99.90;;;;;;5019910;28;20216;-48
2023/07/10 05:17:24;;;;;;;16.10;14.27;;;19.60;99.90;;;;;;5010096;28;20200;-57
2023/07/10 05:19:51;;;;;;;20.17;15.07;;;19.70;99.90;;;;;;5011524;28;20212;-52
2023/07/10 05:22:19;;;;;;;18.03;13.27;;;19.70;99.90;;;;;;5020253;28;20203;-57
2023/07/10 05:24:46;;;;;;;15.33;13.43;;;19.70;99.90;;;;;;5020401;28;20621;-55
2023/07/10 05:27:12;;;;;;;18.43;14.73;;;19.70;99.90;;;;;;4995455;28;20243;-55
2023/07/10 05:29:39;;;;;;;19.67;14.30;;;19.70;99.90;;;;;;5014061;28;20191;-50
2023/07/10 05:32:07;;;;;;;15.70;13.63;;;19.70;99.90;;;;;;5021249;28;20548;-54
2023/07/10 05:34:33;;;;;;;15.30;13.57;;;19.80;99.90;;;;;;5022807;28;20206;-48
2023/07/10 05:37:00;;;;;;;17.97;14.63;;;19.80;99.90;;;;;;5017948;28;20200;-52
2023/07/10 05:39:30;;;;;;;15.60;13.90;;;19.90;99.90;;;;;;5017372;28;20191;-54
2023/07/10 05:41:59;;;;;;;16.60;13.57;;;20.00;99.90;;;;;;4997184;28;20212;-55
2023/07/10 05:44:26;;;;;;;16.70;13.00;;;20.10;99.90;;;;;;5020200;28;20212;-51
2023/07/10 05:46:55;;;;;;;15.40;12.93;;;20.20;99.90;;;;;;5023855;28;20219;-52
2023/07/10 05:49:23;;;;;;;18.33;13.33;;;20.30;99.90;;;;;;5019596;28;20239;-57
2023/07/10 05:51:50;;;;;;;17.37;13.53;;;20.20;99.90;;;;;;5012843;28;20208;-56
2023/07/10 05:54:17;;;;;;;15.03;13.43;;;20.30;99.90;;;;;;5017840;28;20312;-53
2023/07/10 05:56:45;;;;;;;16.70;12.87;;;20.30;99.90;;;;;;4997351;28;20208;-58
2023/07/10 05:59:13;;;;;;;16.00;13.77;;;20.30;99.90;;;;;;5022663;28;20200;-51
2023/07/10 06:01:40;;;;;;;17.77;13.30;;;20.40;99.90;;;;;;5025132;28;20199;-59
2023/07/10 06:04:07;;;;;;;17.80;13.33;;;20.40;99.90;;;;;;5022819;28;20224;-53
2023/07/10 06:06:34;;;;;;;14.53;13.03;;;20.50;99.90;;;;;;5026706;28;20234;-59
2023/07/10 06:09:01;;;;;;;15.83;12.33;;;20.50;99.90;;;;;;5026306;28;20203;-58
2023/07/10 06:11:28;;;;;;;14.27;11.87;;;20.50;99.90;;;;;;5034481;28;20240;-56
2023/07/10 06:13:56;;;;;;;14.30;11.93;;;20.50;99.90;;;;;;5013774;28;20224;-58
2023/07/10 06:16:23;;;;;;;12.80;11.00;;;20.50;99.90;;;;;;5021124;28;20883;-56
2023/07/10 06:18:50;;;;;;;12.33;11.07;;;20.50;99.90;;;;;;5024685;28;20250;-56
2023/07/10 06:21:17;;;;;;;15.17;11.93;;;20.60;99.90;;;;;;5031213;28;20709;-52
2023/07/10 06:23:48;;;;;;;17.60;12.47;;;20.60;99.90;;;;;;5020281;28;20224;-56
2023/07/10 06:26:15;;;;;;;14.67;12.13;;;20.60;99.90;;;;;;5027616;28;20222;-52
2023/07/10 06:28:42;;;;;;;15.37;13.73;;;20.60;99.90;;;;;;5003066;28;20756;-58
2023/07/10 06:31:12;;;;;;;18.60;14.00;;;20.50;99.90;;;;;;5028816;28;20242;-56
2023/07/10 06:33:40;;;;;;;16.57;12.80;;;20.40;99.90;;;;;;5021121;28;20212;-60
2023/07/10 06:36:07;;;;;;;15.37;13.23;;;20.40;99.90;;;;;;5024292;28;20180;-56
2023/07/10 06:38:34;;;;;;;15.07;13.43;;;20.40;99.90;;;;;;5021649;28;20196;-60
2023/07/10 06:41:01;;;;;;;16.20;14.50;;;20.40;99.90;;;;;;5023673;28;20196;-55
2023/07/10 06:43:28;;;;;;;16.67;14.87;;;20.30;99.90;;;;;;5011097;28;20218;-59
2023/07/10 06:45:56;;;;;;;22.47;16.17;;;20.30;99.90;;;;;;5003847;28;20772;-51
2023/07/10 06:48:25;;;;;;;17.73;15.67;;;20.20;99.90;;;;;;5018927;28;20180;-52
2023/07/10 06:50:54;;;;;;;20.90;17.20;;;20.20;99.90;;;;;;5018227;28;20207;-54
2023/07/10 06:53:21;;;;;;;19.80;17.70;;;20.20;99.90;;;;;;4992369;28;20208;-51
2023/07/10 06:55:53;;;;;;;20.97;17.47;;;20.10;99.90;;;;;;5018658;28;20235;-55
2023/07/10 06:58:20;;;;;;;18.83;16.97;;;20.00;99.90;;;;;;5012810;28;20235;-54
2023/07/10 07:00:47;;;;;;;18.87;16.83;;;19.90;99.90;;;;;;4997415;28;20944;-57
2023/07/10 07:03:14;;;;;;;22.77;17.47;;;19.80;99.90;;;;;;5018506;28;20662;-53
2023/07/10 07:05:43;;;;;;;21.53;18.07;;;19.80;99.90;;;;;;5006270;28;20246;-57
2023/07/10 07:08:10;;;;;;;19.37;17.07;;;19.80;99.90;;;;;;5023972;28;20224;-57
2023/07/10 07:10:41;;;;;;;20.97;18.87;;;19.80;99.90;;;;;;5012298;28;20974;-54
2023/07/10 07:13:08;;;;;;;19.43;17.47;;;19.90;99.90;;;;;;5022939;28;21660;-56
2023/07/10 07:15:35;;;;;;;21.30;19.13;;;19.90;99.90;;;;;;4991215;28;20307;-55
2023/07/10 07:18:03;;;;;;;23.83;19.23;;;19.90;99.90;;;;;;5018642;28;20246;-54
2023/07/10 07:20:30;;;;;;;21.13;18.90;;;19.90;99.90;;;;;;5014032;28;20935;-57
2023/07/10 07:22:58;;;;;;;20.93;18.70;;;19.90;99.90;;;;;;5020806;28;20274;-55
2023/07/10 07:25:25;;;;;;;18.93;16.30;;;19.90;99.90;;;;;;5015736;28;20219;-57
2023/07/10 07:27:52;;;;;;;19.97;16.37;;;19.90;99.90;;;;;;5017211;28;20200;-56
2023/07/10 07:30:19;;;;;;;18.70;16.30;;;19.90;99.90;;;;;;5002742;28;20851;-54
2023/07/10 07:32:47;;;;;;;20.67;16.13;;;19.90;99.90;;;;;;5009553;28;20218;-55
2023/07/10 07:35:14;;;;;;;17.50;15.73;;;20.10;99.90;;;;;;5015912;28;20219;-52
2023/07/10 07:37:41;;;;;;;16.40;14.77;;;20.10;99.90;;;;;;5014617;28;20974;-52
2023/07/10 07:40:11;;;;;;;13.73;12.33;;;20.20;99.90;;;;;;5020891;28;20222;-53
2023/07/10 07:42:38;;;;;;;15.23;12.50;;;20.20;99.90;;;;;;5007528;28;20215;-54
2023/07/10 07:45:06;;;;;;;12.93;11.07;;;20.20;99.90;;;;;;5014528;28;20329;-53
2023/07/10 07:47:33;;;;;;;12.07;10.97;;;20.30;99.90;;;;;;4999022;28;20376;-56
2023/07/10 07:50:00;;;;;;;11.00;9.93;;;20.40;99.90;;;;;;5020512;28;20282;-53
2023/07/10 07:52:27;;;;;;;10.30;9.30;;;20.40;99.90;;;;;;5005940;28;20706;-54
2023/07/10 07:54:53;;;;;;;12.93;9.67;;;20.50;99.90;;;;;;5019054;28;20220;-54
2023/07/10 07:57:23;;;;;;;10.37;8.77;;;20.50;99.90;;;;;;5017688;28;20613;-53
2023/07/10 07:59:50;;;;;;;11.50;8.40;;;20.40;99.90;;;;;;5018378;28;20274;-56
2023/07/10 08:02:17;;;;;;;12.10;8.37;;;20.50;99.90;;;;;;5014344;28;20203;-53
2023/07/10 08:04:44;;;;;;;9.40;8.13;;;20.50;99.90;;;;;;4999672;28;20918;-54
2023/07/10 08:07:11;;;;;;;11.27;8.73;;;20.50;99.90;;;;;;5020190;28;20265;-55
2023/07/10 08:09:38;;;;;;;14.17;9.40;;;20.50;99.90;;;;;;5014264;28;20216;-49
2023/07/10 08:12:05;;;;;;;14.87;11.30;;;20.50;99.90;;;;;;5022134;28;20783;-55
2023/07/10 08:14:34;;;;;;;16.80;10.90;;;20.40;99.90;;;;;;5010200;28;20313;-55
2023/07/10 08:17:01;;;;;;;15.77;11.13;;;20.40;99.90;;;;;;5009312;28;20224;-54
2023/07/10 08:19:28;;;;;;;20.23;11.93;;;20.40;99.90;;;;;;4998221;28;20286;-55
2023/07/10 08:21:57;;;;;;;21.43;12.30;;;20.30;99.90;;;;;;5020905;28;20247;-53
2023/07/10 08:24:24;;;;;;;16.67;12.60;;;20.30;99.90;;;;;;5012008;28;20227;-56
2023/07/10 08:26:51;;;;;;;19.63;12.50;;;20.30;99.90;;;;;;5014224;28;20231;-54
2023/07/10 08:29:26;;;;;;;20.90;13.23;;;20.30;99.90;;;;;;5008402;28;20212;-54
2023/07/10 08:31:55;;;;;;;19.57;12.83;;;20.20;99.90;;;;;;5020325;28;20281;-56
2023/07/10 08:34:22;;;;;;;18.20;12.27;;;20.20;99.90;;;;;;4988148;28;20235;-54
2023/07/10 08:36:51;;;;;;;13.27;11.07;;;20.20;99.90;;;;;;5016572;28;20946;-53
2023/07/10 08:39:18;;;;;;;12.13;9.43;;;20.20;99.90;;;;;;5011158;28;20670;-52
2023/07/10 08:41:48;;;;;;;12.67;8.53;;;20.30;99.90;;;;;;5016423;28;20191;-56
2023/07/10 08:44:15;;;;;;;9.60;8.00;;;20.40;99.90;;;;;;5013039;28;20295;-54
2023/07/10 08:46:43;;;;;;;10.13;7.53;;;20.40;99.90;;;;;;5015885;28;20224;-55
2023/07/10 08:49:17;;;;;;;12.00;8.10;;;20.40;99.90;;;;;;4993941;28;20231;-54
2023/07/10 08:51:53;;;;;;;9.03;7.60;;;20.50;99.90;;;;;;5013943;28;20273;-53
2023/07/10 08:54:20;;;;;;;7.60;6.00;;;20.60;99.90;;;;;;5011261;28;20800;-54
2023/07/10 08:56:51;;;;;;;6.73;6.10;;;20.60;99.90;;;;;;5023854;28;20184;-54
2023/07/10 08:59:40;;;;;;;9.30;5.70;;;20.60;99.90;;;;;;5017494;28;20204;-56
2023/07/10 09:02:20;;;;;;;10.33;5.50;;;20.60;99.90;;;;;;5017813;28;20224;-53
2023/07/10 09:04:50;;;;;;;8.77;5.00;;;20.60;99.90;;;;;;4990783;28;20269;-54
2023/07/10 09:07:19;;;;;;;5.97;5.03;;;20.80;99.90;;;;;;5014954;28;20689;-53
2023/07/10 09:09:50;;;;;;;7.43;4.97;;;21.10;99.90;;;;;;5022746;28;20227;-57
2023/07/10 09:12:24;;;;;;;5.17;4.50;;;21.20;99.90;;;;;;5017451;28;20202;-55
2023/07/10 09:14:55;;;;;;;5.17;4.67;;;21.20;99.90;;;;;;5024464;28;20269;-55
2023/07/10 09:17:34;;;;;;;6.17;4.30;;;21.20;99.90;;;;;;5013907;28;20874;-55
2023/07/10 09:20:08;;;;;;;6.30;3.90;;;21.20;99.90;;;;;;5001706;28;20233;-55
2023/07/10 09:22:37;;;;;;;4.83;3.93;;;21.40;99.90;;;;;;5023008;28;20667;-55
2023/07/10 09:25:11;;;;;;;5.87;3.50;;;21.50;99.90;;;;;;5021964;28;20206;-56
2023/07/10 09:27:38;;;;;;;5.60;3.33;;;21.50;99.90;;;;;;5013300;28;20224;-55
2023/07/10 09:30:22;;;;;;;5.03;3.23;;;21.60;99.90;;;;;;5016718;28;20208;-54
2023/07/10 09:32:51;;;;;;;6.77;3.97;;;21.60;99.90;;;;;;5025474;28;20242;-56
2023/07/10 09:35:20;;;;;;;5.88;3.50;;;21.70;99.90;;;;;;5001722;28;20325;-53
2023/07/10 09:37:50;;;;;;;5.65;3.95;;;21.60;99.90;;;;;;5027345;28;20199;-55
2023/07/10 09:40:33;;;;;;;5.05;3.33;;;21.60;99.90;;;;;;5018389;28;20188;-53
2023/07/10 09:43:03;;;;;;;4.13;3.42;;;21.80;99.90;;;;;;5014294;28;20210;-53
2023/07/10 09:45:33;;;;;;;7.93;4.17;;;22.00;99.90;;;;;;5021311;28;20277;-54
2023/07/10 09:48:00;;;;;;;4.38;3.25;;;22.10;99.90;;;;;;5019060;28;20222;-56
2023/07/10 09:50:32;;;;;;;3.53;3.22;;;22.10;99.90;;;;;;5003751;28;20300;-57
2023/07/10 09:52:59;;;;;;;7.75;3.55;;;21.90;99.90;;;;;;5019336;28;20200;-56
2023/07/10 09:55:26;;;;;;;3.42;3.10;;;22.00;99.90;;;;;;5023484;28;20271;-55
2023/07/10 09:57:57;;;;;;;6.15;3.78;;;22.10;99.90;;;;;;5023022;28;20265;-57
2023/07/10 10:00:26;;;;;;;5.15;3.20;;;22.10;99.90;;;;;;5017138;28;20939;-54
2023/07/10 10:02:57;;;;;;;6.13;3.28;;;22.20;99.90;;;;;;5013860;28;20710;-53
2023/07/10 10:05:24;;;;;;;4.32;3.25;;;22.10;99.90;;;;;;5023224;28;20918;-57
2023/07/10 10:08:00;;;;;;;4.50;3.20;;;22.20;99.90;;;;;;5008303;28;20581;-53
2023/07/10 10:10:29;;;;;;;4.22;3.60;;;22.30;99.90;;;;;;5024786;28;20191;-55
2023/07/10 10:13:03;;;;;;;6.63;3.33;;;22.40;99.90;;;;;;5021940;28;20200;-54
2023/07/10 10:15:41;;;;;;;3.50;3.17;;;22.40;99.90;;;;;;5018372;28;20203;-55
2023/07/10 10:18:20;;;;;;;4.90;3.15;;;22.40;99.90;;;;;;5013115;28;20208;-53
2023/07/10 10:20:47;;;;;;;2.92;2.65;;;22.50;99.90;;;;;;5020490;28;20213;-52
2023/07/10 10:23:30;;;;;;;4.70;3.33;;;22.60;99.90;;;;;;4995395;28;20215;-53
2023/07/10 10:26:17;;;;;;;4.10;3.17;;;22.60;99.90;;;;;;5020619;28;20188;-56
2023/07/10 10:28:51;;;;;;;3.72;3.22;;;22.50;99.90;;;;;;5016554;28;20208;-49
2023/07/10 10:31:22;;;;;;;3.65;2.70;;;22.60;99.90;;;;;;5011004;28;20201;-51
2023/07/10 10:33:57;;;;;;;5.00;3.05;;;22.80;99.90;;;;;;5005937;28;20245;-51
2023/07/10 10:36:34;;;;;;;4.60;2.90;;;22.80;99.90;;;;;;5011580;28;20231;-59
2023/07/10 10:39:10;;;;;;;5.57;3.40;;;22.90;99.90;;;;;;4985358;28;20208;-55
2023/07/10 10:41:52;;;;;;;3.45;3.15;;;22.90;99.90;;;;;;5016659;28;20223;-62
2023/07/10 10:44:34;;;;;;;7.03;3.67;;;22.90;99.90;;;;;;5013916;28;20216;-49
2023/07/10 10:47:24;;;;;;;3.72;3.42;;;22.90;99.90;;;;;;5018123;28;20314;-56
2023/07/10 10:50:03;;;;;;;3.03;2.65;;;22.70;99.90;;;;;;5014842;28;20669;-59
2023/07/10 10:52:38;;;;;;;4.78;3.03;;;22.70;99.90;;;;;;5016618;28;20241;-60
2023/07/10 10:55:32;;;;;;;4.05;2.90;;;22.80;99.90;;;;;;4995736;28;20692;-61
2023/07/10 10:58:14;;;;;;;2.47;2.25;;;22.70;99.90;;;;;;5014858;28;20204;-51
2023/07/10 11:00:54;;;;;;;4.90;2.58;;;22.70;99.90;;;;;;5013317;28;20204;-50
2023/07/10 11:03:28;;;;;;;3.45;2.45;;;22.70;99.90;;;;;;5010848;28;20203;-62
2023/07/10 11:05:59;;;;;;;4.78;2.50;;;22.80;99.90;;;;;;5013455;28;20274;-51
2023/07/10 11:08:33;;;;;;;6.65;2.53;;;23.00;99.90;;;;;;5003329;28;21025;-53
2023/07/10 11:11:05;;;;;;;3.80;2.50;;;23.10;99.90;;;;;;5015459;28;20200;-56
2023/07/10 11:13:36;;;;;;;3.55;2.45;;;23.00;99.90;;;;;;5014885;28;20211;-57
2023/07/10 11:16:05;;;;;;;3.25;2.83;;;23.00;99.90;;;;;;5012106;28;20206;-56
2023/07/10 11:18:33;;;;;;;2.28;2.08;;;23.00;99.90;;;;;;5018461;28;20273;-51
2023/07/10 11:21:01;;;;;;;3.30;2.38;;;23.00;99.90;;;;;;5015786;28;20208;-48
2023/07/10 11:23:36;;;;;;;2.55;2.35;;;22.90;99.90;;;;;;5018414;28;20959;-46
2023/07/10 11:26:09;;;;;;;4.03;2.55;;;22.90;99.90;;;;;;4999576;28;20324;-59
2023/07/10 11:28:38;;;;;;;6.18;3.05;;;23.10;99.90;;;;;;5012229;28;20216;-53
2023/07/10 11:31:35;;;;;;;4.90;2.33;;;23.10;99.90;;;;;;5011283;28;20223;-57
2023/07/10 11:34:36;;;;;;;6.68;2.97;;;23.20;99.90;;;;;;5021192;28;20709;-49
2023/07/10 11:37:03;;;;;;;3.92;2.47;;;23.30;99.90;;;;;;5014429;28;20200;-50
2023/07/10 11:39:32;;;;;;;5.05;2.90;;;23.30;99.90;;;;;;5013211;28;20855;-53
2023/07/10 11:42:17;;;;;;;3.00;2.63;;;23.50;99.90;;;;;;4993853;28;20262;-51
2023/07/10 11:44:52;;;;;;;2.97;2.50;;;23.60;99.90;;;;;;5018876;28;20216;-60
2023/07/10 11:47:28;;;;;;;2.72;2.33;;;23.60;99.90;;;;;;5016474;28;20274;-51
2023/07/10 11:50:15;;;;;;;3.50;2.55;;;23.40;99.90;;;;;;5009679;28;20296;-54
2023/07/10 11:52:42;;;;;;;3.80;2.45;;;23.30;99.90;;;;;;5016460;28;20211;-55
2023/07/10 11:55:13;;;;;;;3.08;2.38;;;23.20;99.90;;;;;;4998066;28;21779;-50
2023/07/10 11:57:41;;;;;;;2.60;2.10;;;23.20;99.90;;;;;;5017829;28;20192;-61
2023/07/10 12:00:27;;;;;;;3.17;2.28;;;23.20;99.90;;;;;;5018106;28;20199;-57
2023/07/10 12:02:56;;;;;;;2.38;1.98;;;23.30;99.90;;;;;;5005793;28;20299;-60
2023/07/10 12:05:26;;;;;;;3.85;2.22;;;23.30;99.90;;;;;;5020368;28;20273;-50
2023/07/10 12:07:56;;;;;;;3.78;2.13;;;23.30;99.90;;;;;;5012107;28;20291;-58
2023/07/10 12:10:24;;;;;;;4.63;1.92;;;23.60;99.90;;;;;;5023014;28;20276;-60
2023/07/10 12:12:52;;;;;;;3.22;2.67;;;23.80;99.90;;;;;;4987936;28;20682;-65
2023/07/10 12:15:20;;;;;;;2.95;2.03;;;23.80;99.90;;;;;;5015120;28;20223;-49
2023/07/10 12:17:54;;;;;;;2.35;1.80;;;23.80;99.90;;;;;;5011430;28;20273;-51
2023/07/10 12:20:28;;;;;;;4.78;1.92;;;23.70;99.90;;;;;;5022898;28;20206;-54
2023/07/10 12:23:00;;;;;;;2.58;2.08;;;23.70;99.90;;;;;;5011183;28;20218;-55
2023/07/10 12:25:27;;;;;;;3.15;1.83;;;23.90;99.90;;;;;;5019973;28;20709;-54
2023/07/10 12:28:00;;;;;;;2.47;1.80;;;24.00;99.90;;;;;;4985749;28;20216;-56
2023/07/10 12:30:28;;;;;;;4.28;2.38;;;24.00;99.90;;;;;;5021227;28;20200;-55
2023/07/10 12:32:56;;;;;;;4.63;1.92;;;24.00;99.90;;;;;;5013844;28;20257;-53
2023/07/10 12:35:30;;;;;;;6.65;2.42;;;24.10;99.90;;;;;;5014441;28;20647;-55
2023/07/10 12:38:00;;;;;;;4.80;2.33;;;24.00;99.90;;;;;;5007595;28;20255;-58
2023/07/10 12:40:28;;;;;;;2.92;1.77;;;24.00;99.90;;;;;;5014138;28;20258;-53
2023/07/10 12:42:57;;;;;;;2.92;1.50;;;23.90;99.90;;;;;;4999174;28;20203;-47
2023/07/10 12:45:32;;;;;;;2.55;1.40;;;24.10;99.90;;;;;;5011777;28;20228;-55
2023/07/10 12:48:09;;;;;;;3.33;1.50;;;24.40;99.90;;;;;;5009909;28;20224;-60
2023/07/10 12:50:41;;;;;;;2.35;1.65;;;24.70;99.90;;;;;;5008851;28;20200;-56